sensor_id;sensor_type;location;lat;lon;timestamp;temperature;humidity
14786;DHT22;7484;49.906;9.058;2023-06-22T00:00:00;23.40;1.00
14786;DHT22;7484;49.906;9.058;2023-06-22T00:02:26;23.50;1.00
14786;DHT22;7484;49.906;9.058;2023-06-22T00:04:53;23.40;1.00
14786;DHT22;7484;49.906;9.058;2023-06-22T00:07:20;23.30;1.00
14786;DHT22;7484;49.906;9.058;2023-06-22T00:09:47;23.20;1.00
14786;DHT22;7484;49.906;9.058;2023-06-22T00:12:13;23.00;17.30
14786;DHT22;7484;49.906;9.058;2023-06-22T00:14:40;22.90;91.50
14786;DHT22;7484;49.906;9.058;2023-06-22T00:17:08;23.00;66.30
14786;DHT22;7484;49.906;9.058;2023-06-22T00:19:35;23.10;39.40
14786;DHT22;7484;49.906;9.058;2023-06-22T00:22:02;23.00;70.60
14786;DHT22;7484;49.906;9.058;2023-06-22T00:24:29;23.00;38.80
14786;DHT22;7484;49.906;9.058;2023-06-22T00:26:55;23.10;20.80
14786;DHT22;7484;49.906;9.058;2023-06-22T00:29:22;23.20;1.00
14786;DHT22;7484;49.906;9.058;2023-06-22T00:31:49;23.30;1.00
14786;DHT22;7484;49.906;9.058;2023-06-22T00:34:17;23.10;1.00
14786;DHT22;7484;49.906;9.058;2023-06-22T00:36:43;23.10;1.00
14786;DHT22;7484;49.906;9.058;2023-06-22T00:39:10;23.00;40.90
14786;DHT22;7484;49.906;9.058;2023-06-22T00:41:37;23.10;4.20
14786;DHT22;7484;49.906;9.058;2023-06-22T00:44:04;23.10;1.00
14786;DHT22;7484;49.906;9.058;2023-06-22T00:46:32;23.00;24.90
14786;DHT22;7484;49.906;9.058;2023-06-22T00:48:59;23.10;1.00
14786;DHT22;7484;49.906;9.058;2023-06-22T00:51:29;23.10;1.00
14786;DHT22;7484;49.906;9.058;2023-06-22T00:53:55;23.20;1.00
14786;DHT22;7484;49.906;9.058;2023-06-22T00:56:23;23.20;1.00
14786;DHT22;7484;49.906;9.058;2023-06-22T00:58:51;23.20;1.00
14786;DHT22;7484;49.906;9.058;2023-06-22T01:01:19;23.30;1.00
14786;DHT22;7484;49.906;9.058;2023-06-22T01:03:49;23.20;1.00
14786;DHT22;7484;49.906;9.058;2023-06-22T01:06:22;23.00;20.20
14786;DHT22;7484;49.906;9.058;2023-06-22T01:09:00;23.00;16.30
14786;DHT22;7484;49.906;9.058;2023-06-22T01:11:33;22.80;99.90
14786;DHT22;7484;49.906;9.058;2023-06-22T01:14:06;21.80;99.90
14786;DHT22;7484;49.906;9.058;2023-06-22T01:16:35;22.90;99.90
14786;DHT22;7484;49.906;9.058;2023-06-22T01:19:09;23.00;99.90
14786;DHT22;7484;49.906;9.058;2023-06-22T01:21:42;22.80;99.90
14786;DHT22;7484;49.906;9.058;2023-06-22T01:24:20;22.60;99.90
14786;DHT22;7484;49.906;9.058;2023-06-22T01:26:56;22.40;99.90
14786;DHT22;7484;49.906;9.058;2023-06-22T01:29:27;22.30;99.90
14786;DHT22;7484;49.906;9.058;2023-06-22T01:31:55;22.30;99.90
14786;DHT22;7484;49.906;9.058;2023-06-22T01:34:23;22.20;99.90
14786;DHT22;7484;49.906;9.058;2023-06-22T01:36:51;22.20;99.90
14786;DHT22;7484;49.906;9.058;2023-06-22T01:39:19;22.30;99.90
14786;DHT22;7484;49.906;9.058;2023-06-22T01:41:48;22.40;99.90
14786;DHT22;7484;49.906;9.058;2023-06-22T01:44:15;22.60;99.90
14786;DHT22;7484;49.906;9.058;2023-06-22T01:46:44;22.60;99.90
14786;DHT22;7484;49.906;9.058;2023-06-22T01:49:10;22.50;99.90
14786;DHT22;7484;49.906;9.058;2023-06-22T01:51:37;22.60;99.90
14786;DHT22;7484;49.906;9.058;2023-06-22T01:54:06;22.60;99.90
14786;DHT22;7484;49.906;9.058;2023-06-22T01:56:33;22.60;99.90
14786;DHT22;7484;49.906;9.058;2023-06-22T01:59:04;22.50;99.90
14786;DHT22;7484;49.906;9.058;2023-06-22T02:01:47;22.30;99.90
14786;DHT22;7484;49.906;9.058;2023-06-22T02:04:21;22.10;99.90
14786;DHT22;7484;49.906;9.058;2023-06-22T02:06:52;21.90;1.00
14786;DHT22;7484;49.906;9.058;2023-06-22T02:09:22;22.00;1.00
14786;DHT22;7484;49.906;9.058;2023-06-22T02:11:51;22.00;1.00
14786;DHT22;7484;49.906;9.058;2023-06-22T02:14:21;21.90;1.00
14786;DHT22;7484;49.906;9.058;2023-06-22T02:16:49;21.80;1.00
14786;DHT22;7484;49.906;9.058;2023-06-22T02:19:17;21.80;1.00
14786;DHT22;7484;49.906;9.058;2023-06-22T02:21:48;21.90;1.00
14786;DHT22;7484;49.906;9.058;2023-06-22T02:24:15;21.90;1.00
14786;DHT22;7484;49.906;9.058;2023-06-22T02:26:42;22.00;1.00
14786;DHT22;7484;49.906;9.058;2023-06-22T02:29:10;22.10;1.00
14786;DHT22;7484;49.906;9.058;2023-06-22T02:31:37;22.20;1.00
14786;DHT22;7484;49.906;9.058;2023-06-22T02:34:05;22.20;1.00
14786;DHT22;7484;49.906;9.058;2023-06-22T02:36:32;22.10;1.00
14786;DHT22;7484;49.906;9.058;2023-06-22T02:39:00;22.10;1.00
14786;DHT22;7484;49.906;9.058;2023-06-22T02:41:29;22.10;1.00
14786;DHT22;7484;49.906;9.058;2023-06-22T02:43:56;22.10;1.00
14786;DHT22;7484;49.906;9.058;2023-06-22T02:46:23;22.10;1.00
14786;DHT22;7484;49.906;9.058;2023-06-22T02:48:51;22.10;1.00
14786;DHT22;7484;49.906;9.058;2023-06-22T02:51:19;21.90;1.00
14786;DHT22;7484;49.906;9.058;2023-06-22T02:53:46;21.50;1.00
14786;DHT22;7484;49.906;9.058;2023-06-22T02:56:14;21.20;1.00
14786;DHT22;7484;49.906;9.058;2023-06-22T02:58:41;21.30;1.00
14786;DHT22;7484;49.906;9.058;2023-06-22T03:01:10;21.40;1.00
14786;DHT22;7484;49.906;9.058;2023-06-22T03:03:38;21.50;1.00
14786;DHT22;7484;49.906;9.058;2023-06-22T03:06:05;21.60;1.00
14786;DHT22;7484;49.906;9.058;2023-06-22T03:08:33;21.70;1.00
14786;DHT22;7484;49.906;9.058;2023-06-22T03:11:00;21.70;1.00
14786;DHT22;7484;49.906;9.058;2023-06-22T03:13:27;21.60;1.00
14786;DHT22;7484;49.906;9.058;2023-06-22T03:15:54;21.50;1.00
14786;DHT22;7484;49.906;9.058;2023-06-22T03:18:21;21.40;1.00
14786;DHT22;7484;49.906;9.058;2023-06-22T03:20:48;21.40;1.00
14786;DHT22;7484;49.906;9.058;2023-06-22T03:23:15;21.50;1.00
14786;DHT22;7484;49.906;9.058;2023-06-22T03:25:43;21.40;1.00
14786;DHT22;7484;49.906;9.058;2023-06-22T03:28:11;21.30;1.00
14786;DHT22;7484;49.906;9.058;2023-06-22T03:30:37;21.30;1.00
14786;DHT22;7484;49.906;9.058;2023-06-22T03:33:04;21.20;1.00
14786;DHT22;7484;49.906;9.058;2023-06-22T03:35:33;21.00;1.00
14786;DHT22;7484;49.906;9.058;2023-06-22T03:37:59;21.00;1.00
14786;DHT22;7484;49.906;9.058;2023-06-22T03:40:26;21.10;1.00
14786;DHT22;7484;49.906;9.058;2023-06-22T03:42:55;21.10;1.00
14786;DHT22;7484;49.906;9.058;2023-06-22T03:45:22;21.30;1.00
14786;DHT22;7484;49.906;9.058;2023-06-22T03:47:48;21.30;1.00
14786;DHT22;7484;49.906;9.058;2023-06-22T03:50:15;21.40;1.00
14786;DHT22;7484;49.906;9.058;2023-06-22T03:52:42;21.30;1.00
14786;DHT22;7484;49.906;9.058;2023-06-22T03:55:09;21.30;1.00
14786;DHT22;7484;49.906;9.058;2023-06-22T03:57:36;21.40;1.00
14786;DHT22;7484;49.906;9.058;2023-06-22T04:00:05;21.50;1.00
14786;DHT22;7484;49.906;9.058;2023-06-22T04:02:37;21.50;1.00
14786;DHT22;7484;49.906;9.058;2023-06-22T04:05:05;21.60;1.00
14786;DHT22;7484;49.906;9.058;2023-06-22T04:07:32;21.60;1.00
14786;DHT22;7484;49.906;9.058;2023-06-22T04:09:58;21.50;1.00
14786;DHT22;7484;49.906;9.058;2023-06-22T04:12:25;21.40;1.00
14786;DHT22;7484;49.906;9.058;2023-06-22T04:14:52;21.50;1.00
14786;DHT22;7484;49.906;9.058;2023-06-22T04:17:20;21.70;1.00
14786;DHT22;7484;49.906;9.058;2023-06-22T04:19:46;21.80;1.00
14786;DHT22;7484;49.906;9.058;2023-06-22T04:22:13;21.70;1.00
14786;DHT22;7484;49.906;9.058;2023-06-22T04:24:40;21.80;1.00
14786;DHT22;7484;49.906;9.058;2023-06-22T04:27:06;21.80;1.00
14786;DHT22;7484;49.906;9.058;2023-06-22T04:29:33;21.80;1.00
14786;DHT22;7484;49.906;9.058;2023-06-22T04:32:01;22.00;1.00
14786;DHT22;7484;49.906;9.058;2023-06-22T04:34:32;21.90;1.00
14786;DHT22;7484;49.906;9.058;2023-06-22T04:36:58;22.00;1.00
14786;DHT22;7484;49.906;9.058;2023-06-22T04:39:25;21.90;1.00
14786;DHT22;7484;49.906;9.058;2023-06-22T04:41:52;21.90;1.00
14786;DHT22;7484;49.906;9.058;2023-06-22T04:44:20;21.80;1.00
14786;DHT22;7484;49.906;9.058;2023-06-22T04:46:50;21.70;1.00
14786;DHT22;7484;49.906;9.058;2023-06-22T04:49:20;21.60;1.00
14786;DHT22;7484;49.906;9.058;2023-06-22T04:51:48;21.60;1.00
14786;DHT22;7484;49.906;9.058;2023-06-22T04:54:17;21.70;1.00
14786;DHT22;7484;49.906;9.058;2023-06-22T04:56:43;21.70;1.00
14786;DHT22;7484;49.906;9.058;2023-06-22T04:59:12;21.90;1.00
14786;DHT22;7484;49.906;9.058;2023-06-22T05:01:39;22.00;1.00
14786;DHT22;7484;49.906;9.058;2023-06-22T05:04:06;21.90;1.00
14786;DHT22;7484;49.906;9.058;2023-06-22T05:06:33;21.80;1.00
14786;DHT22;7484;49.906;9.058;2023-06-22T05:09:01;21.70;1.00
14786;DHT22;7484;49.906;9.058;2023-06-22T05:11:28;21.50;1.00
14786;DHT22;7484;49.906;9.058;2023-06-22T05:13:55;21.60;1.00
14786;DHT22;7484;49.906;9.058;2023-06-22T05:16:23;21.70;1.00
14786;DHT22;7484;49.906;9.058;2023-06-22T05:18:52;21.90;1.00
14786;DHT22;7484;49.906;9.058;2023-06-22T05:21:22;22.00;1.00
14786;DHT22;7484;49.906;9.058;2023-06-22T05:23:49;22.10;1.00
14786;DHT22;7484;49.906;9.058;2023-06-22T05:26:17;22.30;99.90
14786;DHT22;7484;49.906;9.058;2023-06-22T05:28:44;22.40;99.90
14786;DHT22;7484;49.906;9.058;2023-06-22T05:31:11;22.60;99.90
14786;DHT22;7484;49.906;9.058;2023-06-22T05:33:38;22.70;99.90
14786;DHT22;7484;49.906;9.058;2023-06-22T05:36:05;22.90;99.90
14786;DHT22;7484;49.906;9.058;2023-06-22T05:38:32;23.10;99.90
14786;DHT22;7484;49.906;9.058;2023-06-22T05:40:59;23.10;99.90
14786;DHT22;7484;49.906;9.058;2023-06-22T05:43:27;23.20;99.90
14786;DHT22;7484;49.906;9.058;2023-06-22T05:45:54;23.30;99.90
14786;DHT22;7484;49.906;9.058;2023-06-22T05:48:20;23.30;99.90
14786;DHT22;7484;49.906;9.058;2023-06-22T05:50:47;23.40;99.90
14786;DHT22;7484;49.906;9.058;2023-06-22T05:53:14;23.50;99.90
14786;DHT22;7484;49.906;9.058;2023-06-22T05:55:41;23.70;99.90
14786;DHT22;7484;49.906;9.058;2023-06-22T05:58:08;23.70;99.90
14786;DHT22;7484;49.906;9.058;2023-06-22T06:00:36;23.70;99.90
14786;DHT22;7484;49.906;9.058;2023-06-22T06:03:03;23.90;40.00
14786;DHT22;7484;49.906;9.058;2023-06-22T06:05:29;24.10;40.30
14786;DHT22;7484;49.906;9.058;2023-06-22T06:07:56;24.20;1.00
14786;DHT22;7484;49.906;9.058;2023-06-22T06:10:23;24.30;1.00
14786;DHT22;7484;49.906;9.058;2023-06-22T06:12:50;24.40;1.00
14786;DHT22;7484;49.906;9.058;2023-06-22T06:15:17;24.50;1.00
14786;DHT22;7484;49.906;9.058;2023-06-22T06:17:49;24.60;1.00
14786;DHT22;7484;49.906;9.058;2023-06-22T06:20:19;24.60;1.00
14786;DHT22;7484;49.906;9.058;2023-06-22T06:22:46;24.70;1.00
14786;DHT22;7484;49.906;9.058;2023-06-22T06:25:13;24.80;1.00
14786;DHT22;7484;49.906;9.058;2023-06-22T06:27:42;25.00;99.90
14786;DHT22;7484;49.906;9.058;2023-06-22T06:30:10;25.10;99.90
14786;DHT22;7484;49.906;9.058;2023-06-22T06:32:37;25.20;99.90
14786;DHT22;7484;49.906;9.058;2023-06-22T06:35:07;25.30;15.60
14786;DHT22;7484;49.906;9.058;2023-06-22T06:37:36;25.40;99.90
14786;DHT22;7484;49.906;9.058;2023-06-22T06:40:04;25.50;99.90
14786;DHT22;7484;49.906;9.058;2023-06-22T06:42:33;25.50;74.20
14786;DHT22;7484;49.906;9.058;2023-06-22T06:45:00;25.60;1.00
14786;DHT22;7484;49.906;9.058;2023-06-22T06:47:26;25.70;1.00
14786;DHT22;7484;49.906;9.058;2023-06-22T06:49:53;25.70;99.90
14786;DHT22;7484;49.906;9.058;2023-06-22T06:52:21;25.70;1.00
14786;DHT22;7484;49.906;9.058;2023-06-22T06:54:48;25.80;99.90
14786;DHT22;7484;49.906;9.058;2023-06-22T06:57:17;26.00;99.90
14786;DHT22;7484;49.906;9.058;2023-06-22T06:59:43;26.10;99.90
14786;DHT22;7484;49.906;9.058;2023-06-22T07:02:10;26.00;99.90
14786;DHT22;7484;49.906;9.058;2023-06-22T07:04:37;26.20;67.90
14786;DHT22;7484;49.906;9.058;2023-06-22T07:07:04;26.30;1.00
14786;DHT22;7484;49.906;9.058;2023-06-22T07:09:32;26.40;1.00
14786;DHT22;7484;49.906;9.058;2023-06-22T07:11:59;26.50;99.90
14786;DHT22;7484;49.906;9.058;2023-06-22T07:14:26;26.60;99.90
14786;DHT22;7484;49.906;9.058;2023-06-22T07:16:52;26.70;99.90
14786;DHT22;7484;49.906;9.058;2023-06-22T07:19:24;26.70;1.00
14786;DHT22;7484;49.906;9.058;2023-06-22T07:21:52;26.80;99.90
14786;DHT22;7484;49.906;9.058;2023-06-22T07:24:19;26.90;99.90
14786;DHT22;7484;49.906;9.058;2023-06-22T07:26:47;27.00;1.00
14786;DHT22;7484;49.906;9.058;2023-06-22T07:29:15;27.00;30.00
14786;DHT22;7484;49.906;9.058;2023-06-22T07:31:42;27.10;1.00
14786;DHT22;7484;49.906;9.058;2023-06-22T07:34:09;27.10;1.00
14786;DHT22;7484;49.906;9.058;2023-06-22T07:36:35;27.20;1.00
14786;DHT22;7484;49.906;9.058;2023-06-22T07:39:02;27.20;1.00
14786;DHT22;7484;49.906;9.058;2023-06-22T07:41:29;27.30;1.00
14786;DHT22;7484;49.906;9.058;2023-06-22T07:43:57;27.40;94.60
14786;DHT22;7484;49.906;9.058;2023-06-22T07:46:24;27.50;99.90
14786;DHT22;7484;49.906;9.058;2023-06-22T07:48:51;27.60;60.10
14786;DHT22;7484;49.906;9.058;2023-06-22T07:51:18;27.80;1.00
14786;DHT22;7484;49.906;9.058;2023-06-22T07:53:44;27.80;1.00
14786;DHT22;7484;49.906;9.058;2023-06-22T07:56:11;27.80;99.90
14786;DHT22;7484;49.906;9.058;2023-06-22T07:58:38;27.70;99.90
14786;DHT22;7484;49.906;9.058;2023-06-22T08:01:06;27.60;1.00
14786;DHT22;7484;49.906;9.058;2023-06-22T08:03:33;27.50;1.00
14786;DHT22;7484;49.906;9.058;2023-06-22T08:05:59;27.40;1.00
14786;DHT22;7484;49.906;9.058;2023-06-22T08:08:26;27.40;1.00
14786;DHT22;7484;49.906;9.058;2023-06-22T08:10:53;27.50;1.00
14786;DHT22;7484;49.906;9.058;2023-06-22T08:13:19;27.70;99.90
14786;DHT22;7484;49.906;9.058;2023-06-22T08:15:46;27.80;99.90
14786;DHT22;7484;49.906;9.058;2023-06-22T08:18:14;28.10;99.90
14786;DHT22;7484;49.906;9.058;2023-06-22T08:20:41;28.20;1.00
14786;DHT22;7484;49.906;9.058;2023-06-22T08:23:08;28.20;1.00
14786;DHT22;7484;49.906;9.058;2023-06-22T08:25:35;28.30;99.90
14786;DHT22;7484;49.906;9.058;2023-06-22T08:28:03;28.30;4.40
14786;DHT22;7484;49.906;9.058;2023-06-22T08:30:30;28.50;1.00
14786;DHT22;7484;49.906;9.058;2023-06-22T08:32:57;28.40;58.90
14786;DHT22;7484;49.906;9.058;2023-06-22T08:35:25;28.40;1.00
14786;DHT22;7484;49.906;9.058;2023-06-22T08:37:52;28.40;1.00
14786;DHT22;7484;49.906;9.058;2023-06-22T08:40:22;28.30;1.00
14786;DHT22;7484;49.906;9.058;2023-06-22T08:42:49;28.40;1.00
14786;DHT22;7484;49.906;9.058;2023-06-22T08:45:16;28.70;1.00
14786;DHT22;7484;49.906;9.058;2023-06-22T08:47:43;28.70;1.00
14786;DHT22;7484;49.906;9.058;2023-06-22T08:50:10;28.80;99.90
14786;DHT22;7484;49.906;9.058;2023-06-22T08:52:40;28.80;99.90
14786;DHT22;7484;49.906;9.058;2023-06-22T08:55:08;29.00;99.90
14786;DHT22;7484;49.906;9.058;2023-06-22T08:57:35;29.20;99.90
14786;DHT22;7484;49.906;9.058;2023-06-22T09:00:03;29.30;1.00
14786;DHT22;7484;49.906;9.058;2023-06-22T09:02:36;29.40;1.00
14786;DHT22;7484;49.906;9.058;2023-06-22T09:05:06;29.20;1.00
14786;DHT22;7484;49.906;9.058;2023-06-22T09:07:33;29.40;1.00
14786;DHT22;7484;49.906;9.058;2023-06-22T09:10:01;29.50;1.00
14786;DHT22;7484;49.906;9.058;2023-06-22T09:12:29;29.70;99.90
14786;DHT22;7484;49.906;9.058;2023-06-22T09:14:58;29.80;99.90
14786;DHT22;7484;49.906;9.058;2023-06-22T09:17:26;30.00;99.90
14786;DHT22;7484;49.906;9.058;2023-06-22T09:19:53;30.30;1.00
14786;DHT22;7484;49.906;9.058;2023-06-22T09:22:20;30.40;1.00
14786;DHT22;7484;49.906;9.058;2023-06-22T09:24:47;30.60;1.00
14786;DHT22;7484;49.906;9.058;2023-06-22T09:27:15;30.80;1.00
14786;DHT22;7484;49.906;9.058;2023-06-22T09:29:42;30.60;1.00
14786;DHT22;7484;49.906;9.058;2023-06-22T09:32:09;30.40;1.00
14786;DHT22;7484;49.906;9.058;2023-06-22T09:34:35;30.60;1.00
14786;DHT22;7484;49.906;9.058;2023-06-22T09:37:02;30.80;1.00
14786;DHT22;7484;49.906;9.058;2023-06-22T09:39:29;30.80;1.00
14786;DHT22;7484;49.906;9.058;2023-06-22T09:41:57;30.50;1.00
14786;DHT22;7484;49.906;9.058;2023-06-22T09:44:25;30.60;1.00
14786;DHT22;7484;49.906;9.058;2023-06-22T09:46:52;30.90;99.90
14786;DHT22;7484;49.906;9.058;2023-06-22T09:49:19;31.00;99.90
14786;DHT22;7484;49.906;9.058;2023-06-22T09:51:46;31.10;99.90
14786;DHT22;7484;49.906;9.058;2023-06-22T09:54:13;31.20;1.00
14786;DHT22;7484;49.906;9.058;2023-06-22T09:56:39;31.20;43.80
14786;DHT22;7484;49.906;9.058;2023-06-22T09:59:06;30.80;99.90
14786;DHT22;7484;49.906;9.058;2023-06-22T10:01:34;30.30;1.00
14786;DHT22;7484;49.906;9.058;2023-06-22T10:04:02;30.00;1.00
14786;DHT22;7484;49.906;9.058;2023-06-22T10:06:29;30.10;1.00
14786;DHT22;7484;49.906;9.058;2023-06-22T10:08:55;30.40;1.00
14786;DHT22;7484;49.906;9.058;2023-06-22T10:11:22;30.60;1.00
14786;DHT22;7484;49.906;9.058;2023-06-22T10:13:54;30.90;99.90
14786;DHT22;7484;49.906;9.058;2023-06-22T10:16:21;31.20;99.40
14786;DHT22;7484;49.906;9.058;2023-06-22T10:18:49;31.50;60.80
14786;DHT22;7484;49.906;9.058;2023-06-22T10:21:15;31.70;1.00
14786;DHT22;7484;49.906;9.058;2023-06-22T10:23:42;31.80;1.00
14786;DHT22;7484;49.906;9.058;2023-06-22T10:26:09;31.90;1.00
14786;DHT22;7484;49.906;9.058;2023-06-22T10:28:35;31.90;1.00
14786;DHT22;7484;49.906;9.058;2023-06-22T10:31:02;32.00;1.00
14786;DHT22;7484;49.906;9.058;2023-06-22T10:33:29;32.20;1.00
14786;DHT22;7484;49.906;9.058;2023-06-22T10:35:57;32.40;99.90
14786;DHT22;7484;49.906;9.058;2023-06-22T10:38:23;32.40;99.90
14786;DHT22;7484;49.906;9.058;2023-06-22T10:40:50;32.30;99.90
14786;DHT22;7484;49.906;9.058;2023-06-22T10:43:17;32.10;1.00
14786;DHT22;7484;49.906;9.058;2023-06-22T10:45:44;32.10;1.00
14786;DHT22;7484;49.906;9.058;2023-06-22T10:48:11;32.10;1.00
14786;DHT22;7484;49.906;9.058;2023-06-22T10:50:38;32.20;99.90
14786;DHT22;7484;49.906;9.058;2023-06-22T10:53:06;32.50;1.00
14786;DHT22;7484;49.906;9.058;2023-06-22T10:55:32;32.90;99.90
14786;DHT22;7484;49.906;9.058;2023-06-22T10:57:59;33.00;99.90
14786;DHT22;7484;49.906;9.058;2023-06-22T11:00:26;32.70;99.90
14786;DHT22;7484;49.906;9.058;2023-06-22T11:02:53;32.50;99.90
14786;DHT22;7484;49.906;9.058;2023-06-22T11:05:19;32.50;99.90
14786;DHT22;7484;49.906;9.058;2023-06-22T11:07:46;32.50;99.90
14786;DHT22;7484;49.906;9.058;2023-06-22T11:10:16;32.60;99.90
14786;DHT22;7484;49.906;9.058;2023-06-22T11:12:43;32.50;99.90
14786;DHT22;7484;49.906;9.058;2023-06-22T11:15:09;32.70;99.90
14786;DHT22;7484;49.906;9.058;2023-06-22T11:17:36;32.60;99.90
14786;DHT22;7484;49.906;9.058;2023-06-22T11:20:04;32.70;99.90
14786;DHT22;7484;49.906;9.058;2023-06-22T11:22:36;32.70;99.90
14786;DHT22;7484;49.906;9.058;2023-06-22T11:25:03;32.50;99.90
14786;DHT22;7484;49.906;9.058;2023-06-22T11:27:31;32.30;1.00
14786;DHT22;7484;49.906;9.058;2023-06-22T11:29:58;31.90;1.00
14786;DHT22;7484;49.906;9.058;2023-06-22T11:32:25;31.70;1.00
14786;DHT22;7484;49.906;9.058;2023-06-22T11:34:52;31.60;1.00
14786;DHT22;7484;49.906;9.058;2023-06-22T11:37:19;31.60;1.00
14786;DHT22;7484;49.906;9.058;2023-06-22T11:39:45;31.80;1.00
14786;DHT22;7484;49.906;9.058;2023-06-22T11:42:12;32.10;1.00
14786;DHT22;7484;49.906;9.058;2023-06-22T11:44:41;32.70;1.00
14786;DHT22;7484;49.906;9.058;2023-06-22T11:47:08;32.80;1.00
14786;DHT22;7484;49.906;9.058;2023-06-22T11:49:35;33.10;99.90
14786;DHT22;7484;49.906;9.058;2023-06-22T11:52:01;33.10;99.90
14786;DHT22;7484;49.906;9.058;2023-06-22T11:54:28;32.80;99.90
14786;DHT22;7484;49.906;9.058;2023-06-22T11:56:55;32.70;99.90
14786;DHT22;7484;49.906;9.058;2023-06-22T11:59:21;32.50;99.90
14786;DHT22;7484;49.906;9.058;2023-06-22T12:01:49;32.70;1.00
14786;DHT22;7484;49.906;9.058;2023-06-22T12:04:17;33.10;99.90
14786;DHT22;7484;49.906;9.058;2023-06-22T12:06:43;33.40;99.90
14786;DHT22;7484;49.906;9.058;2023-06-22T12:09:10;33.70;99.90
14786;DHT22;7484;49.906;9.058;2023-06-22T12:11:39;33.70;99.90
14786;DHT22;7484;49.906;9.058;2023-06-22T12:14:05;33.60;99.90
14786;DHT22;7484;49.906;9.058;2023-06-22T12:16:32;33.90;99.90
14786;DHT22;7484;49.906;9.058;2023-06-22T12:19:00;34.00;99.90
14786;DHT22;7484;49.906;9.058;2023-06-22T12:21:27;34.00;99.90
14786;DHT22;7484;49.906;9.058;2023-06-22T12:23:54;34.00;99.90
14786;DHT22;7484;49.906;9.058;2023-06-22T12:26:21;34.00;99.90
14786;DHT22;7484;49.906;9.058;2023-06-22T12:28:48;33.50;99.90
14786;DHT22;7484;49.906;9.058;2023-06-22T12:31:14;33.50;99.90
14786;DHT22;7484;49.906;9.058;2023-06-22T12:33:41;33.60;99.90
14786;DHT22;7484;49.906;9.058;2023-06-22T12:36:09;33.50;99.90
14786;DHT22;7484;49.906;9.058;2023-06-22T12:38:36;33.70;99.90
14786;DHT22;7484;49.906;9.058;2023-06-22T12:41:03;33.50;99.90
14786;DHT22;7484;49.906;9.058;2023-06-22T12:43:29;33.40;99.90
14786;DHT22;7484;49.906;9.058;2023-06-22T12:45:56;33.40;99.90
14786;DHT22;7484;49.906;9.058;2023-06-22T12:48:23;33.60;99.90
14786;DHT22;7484;49.906;9.058;2023-06-22T12:50:50;34.00;99.90
14786;DHT22;7484;49.906;9.058;2023-06-22T12:53:18;33.90;99.90
14786;DHT22;7484;49.906;9.058;2023-06-22T12:55:45;33.80;99.90
14786;DHT22;7484;49.906;9.058;2023-06-22T12:58:12;33.80;99.90
14786;DHT22;7484;49.906;9.058;2023-06-22T13:00:39;33.90;99.90
14786;DHT22;7484;49.906;9.058;2023-06-22T13:03:05;33.70;99.90
14786;DHT22;7484;49.906;9.058;2023-06-22T13:05:32;33.60;99.90
14786;DHT22;7484;49.906;9.058;2023-06-22T13:08:00;33.60;99.90
14786;DHT22;7484;49.906;9.058;2023-06-22T13:10:28;33.60;99.90
14786;DHT22;7484;49.906;9.058;2023-06-22T13:12:55;33.70;99.90
14786;DHT22;7484;49.906;9.058;2023-06-22T13:15:26;33.90;99.90
14786;DHT22;7484;49.906;9.058;2023-06-22T13:17:53;34.00;99.90
14786;DHT22;7484;49.906;9.058;2023-06-22T13:20:20;34.00;99.90
14786;DHT22;7484;49.906;9.058;2023-06-22T13:22:46;34.00;99.90
14786;DHT22;7484;49.906;9.058;2023-06-22T13:25:13;34.20;99.90
14786;DHT22;7484;49.906;9.058;2023-06-22T13:27:45;34.40;99.90
14786;DHT22;7484;49.906;9.058;2023-06-22T13:30:13;34.70;99.90
14786;DHT22;7484;49.906;9.058;2023-06-22T13:32:40;35.00;99.90
14786;DHT22;7484;49.906;9.058;2023-06-22T13:35:08;35.00;99.90
14786;DHT22;7484;49.906;9.058;2023-06-22T13:37:35;35.20;99.90
14786;DHT22;7484;49.906;9.058;2023-06-22T13:40:02;35.20;99.90
14786;DHT22;7484;49.906;9.058;2023-06-22T13:42:32;35.40;99.90
14786;DHT22;7484;49.906;9.058;2023-06-22T13:45:00;35.00;99.90
14786;DHT22;7484;49.906;9.058;2023-06-22T13:47:27;34.90;99.90
14786;DHT22;7484;49.906;9.058;2023-06-22T13:49:54;34.90;99.90
14786;DHT22;7484;49.906;9.058;2023-06-22T13:52:21;34.80;99.90
14786;DHT22;7484;49.906;9.058;2023-06-22T13:54:47;34.70;99.90
14786;DHT22;7484;49.906;9.058;2023-06-22T13:57:14;34.50;99.90
14786;DHT22;7484;49.906;9.058;2023-06-22T13:59:41;34.60;99.90
14786;DHT22;7484;49.906;9.058;2023-06-22T14:02:09;34.70;99.90
14786;DHT22;7484;49.906;9.058;2023-06-22T14:04:36;34.60;99.90
14786;DHT22;7484;49.906;9.058;2023-06-22T14:07:03;34.50;99.90
14786;DHT22;7484;49.906;9.058;2023-06-22T14:09:29;34.40;99.90
14786;DHT22;7484;49.906;9.058;2023-06-22T14:11:56;34.30;99.90
14786;DHT22;7484;49.906;9.058;2023-06-22T14:14:23;34.40;99.90
14786;DHT22;7484;49.906;9.058;2023-06-22T14:16:49;34.70;99.90
14786;DHT22;7484;49.906;9.058;2023-06-22T14:19:18;34.80;99.90
14786;DHT22;7484;49.906;9.058;2023-06-22T14:21:45;34.90;99.90
14786;DHT22;7484;49.906;9.058;2023-06-22T14:24:11;35.10;99.90
14786;DHT22;7484;49.906;9.058;2023-06-22T14:26:38;35.30;99.90
14786;DHT22;7484;49.906;9.058;2023-06-22T14:29:05;35.30;99.90
14786;DHT22;7484;49.906;9.058;2023-06-22T14:31:32;35.40;99.90
14786;DHT22;7484;49.906;9.058;2023-06-22T14:33:58;35.50;99.90
14786;DHT22;7484;49.906;9.058;2023-06-22T14:36:27;35.60;99.90
14786;DHT22;7484;49.906;9.058;2023-06-22T14:38:54;35.50;99.90
14786;DHT22;7484;49.906;9.058;2023-06-22T14:41:20;35.40;99.90
14786;DHT22;7484;49.906;9.058;2023-06-22T14:43:49;35.20;99.90
14786;DHT22;7484;49.906;9.058;2023-06-22T14:46:18;35.00;99.90
14786;DHT22;7484;49.906;9.058;2023-06-22T14:48:44;34.90;99.90
14786;DHT22;7484;49.906;9.058;2023-06-22T14:51:12;34.80;99.90
14786;DHT22;7484;49.906;9.058;2023-06-22T14:53:41;34.80;99.90
14786;DHT22;7484;49.906;9.058;2023-06-22T14:56:08;34.80;99.90
14786;DHT22;7484;49.906;9.058;2023-06-22T14:58:34;35.10;99.90
14786;DHT22;7484;49.906;9.058;2023-06-22T15:01:02;34.90;99.90
14786;DHT22;7484;49.906;9.058;2023-06-22T15:03:30;34.70;99.90
14786;DHT22;7484;49.906;9.058;2023-06-22T15:05:57;34.60;99.90
14786;DHT22;7484;49.906;9.058;2023-06-22T15:08:25;34.40;99.90
14786;DHT22;7484;49.906;9.058;2023-06-22T15:10:53;34.20;99.90
14786;DHT22;7484;49.906;9.058;2023-06-22T15:13:21;34.00;99.90
14786;DHT22;7484;49.906;9.058;2023-06-22T15:15:48;33.90;99.90
14786;DHT22;7484;49.906;9.058;2023-06-22T15:18:16;34.00;99.90
14786;DHT22;7484;49.906;9.058;2023-06-22T15:20:43;34.30;99.90
14786;DHT22;7484;49.906;9.058;2023-06-22T15:23:11;34.70;99.90
14786;DHT22;7484;49.906;9.058;2023-06-22T15:25:38;34.90;99.90
14786;DHT22;7484;49.906;9.058;2023-06-22T15:28:06;34.90;99.90
14786;DHT22;7484;49.906;9.058;2023-06-22T15:30:33;34.80;99.90
14786;DHT22;7484;49.906;9.058;2023-06-22T15:33:00;34.50;99.90
14786;DHT22;7484;49.906;9.058;2023-06-22T15:35:27;34.50;99.90
14786;DHT22;7484;49.906;9.058;2023-06-22T15:37:54;34.40;99.90
14786;DHT22;7484;49.906;9.058;2023-06-22T15:40:20;34.00;99.90
14786;DHT22;7484;49.906;9.058;2023-06-22T15:42:49;33.70;99.90
14786;DHT22;7484;49.906;9.058;2023-06-22T15:45:17;33.50;99.90
14786;DHT22;7484;49.906;9.058;2023-06-22T15:47:44;33.10;1.00
14786;DHT22;7484;49.906;9.058;2023-06-22T15:50:11;32.70;1.00
14786;DHT22;7484;49.906;9.058;2023-06-22T15:52:39;32.40;99.90